Rosa Maersk — OVST2 — position and weather

sailwx.info

Track history (hours):
 
Tides and Currents Weather Stations Pressure Air Temp Water Temp Dewpoint Dewpoint Depression Visibility Wind Speed Wind Dir Waves Ship Positions

Rosa Maersk

Last reported at 2014-Jul-18 15:16 UTC. Time now 2014-Jul-23 05:17 UTC.
Position N 44°11' E 036°42'.

Length 172 m; draft 7.3 m.

Type: Ship. MMSI: 220288000.

Date/timePositionNaut miles runAvg speedWind from/ knotsBaromVisibWave heightAir tempDewpointWater temp
2014-Jul-18 15:16N 44°11' E 036°42'12 6.1
2014-Jul-18 13:19N 44°02' E 036°31'6 8.5
2014-Jul-18 12:33N 43°60' E 036°22'8 8.4
2014-Jul-18 11:33N 43°56' E 036°12'9 8.4
2014-Jul-18 10:27N 43°52' E 036°00'10 9.5
2014-Jul-18 09:23N 43°49' E 035°47'  
2014-Jul-15 01:19N 38°41' E 025°41'7 8.9
2014-Jul-15 00:30N 38°33' E 025°41'8 8.4
2014-Jul-14 23:33N 38°26' E 025°41'19 8.5
2014-Jul-14 21:17N 38°06' E 025°40'7 7.9
2014-Jul-14 20:27N 37°60' E 025°39'8 7.4
2014-Jul-14 19:23N 37°52' E 025°39'6 7.5
2014-Jul-14 18:33N 37°46' E 025°39'8 7.9
2014-Jul-14 17:31N 37°37' E 025°38'7 7.7
2014-Jul-14 16:33N 37°30' E 025°38'7 7.0
2014-Jul-14 15:32N 37°23' E 025°36'9 8.8
2014-Jul-14 14:33N 37°19' E 025°27'9 9.0
2014-Jul-14 13:33N 37°14' E 025°18'9 8.9
2014-Jul-14 12:33N 37°10' E 025°08'9 8.6
2014-Jul-14 11:33N 37°05' E 024°58'8 8.2
2014-Jul-14 10:33N 36°59' E 024°52'1212.0
2014-Jul-14 09:33N 36°47' E 024°47'1312.4
2014-Jul-14 08:32N 36°37' E 024°38'1110.7
2014-Jul-14 07:32N 36°28' E 024°30'1212.0
2014-Jul-14 06:33N 36°22' E 024°43'1111.1
2014-Jul-14 05:33N 36°16' E 024°55'1110.9
2014-Jul-14 04:33N 36°10' E 025°06'1110.7
2014-Jul-14 03:33N 36°04' E 025°17'1110.5
2014-Jul-14 02:33N 35°58' E 025°28'1010.1
2014-Jul-14 01:33N 35°53' E 025°38'10 9.7
2014-Jul-14 00:33N 35°47' E 025°48'10 9.7
2014-Jul-13 23:33N 35°42' E 025°58'10 9.5
2014-Jul-13 22:33N 35°37' E 026°08'296 8.7
2014-Jul-12 12:32N 31°34' E 029°31'8 7.9
2014-Jul-12 11:33N 31°27' E 029°35'8 8.1
2014-Jul-12 10:31N 31°19' E 029°38'9 7.6
2014-Jul-12 09:17N 31°11' E 029°43'7 0.2
2014-Jul-10 21:12N 31°10' E 029°51'0 0.0
2014-Jul-10 20:33N 31°10' E 029°51'0 0.0
2014-Jul-10 18:33N 31°10' E 029°51'0 0.0
2014-Jul-10 16:15N 31°10' E 029°51'  
Track history (hours):
 
Tides and Currents Weather Stations Pressure Air Temp Water Temp Dewpoint Dewpoint Depression Visibility Wind Speed Wind Dir Waves Ship Positions

Rosa Maersk

Last reported at 2014-Jul-18 15:16 UTC. Time now 2014-Jul-23 05:17 UTC.
Position N 44°11' E 036°42'.

Length 172 m; draft 7.3 m.

Type: Ship. MMSI: 220288000.

Date/timePositionNaut miles runAvg speedWind from/ knotsBaromVisibWave heightAir tempDewpointWater temp
2014-Jul-18 15:16N 44°11' E 036°42'12 6.1
2014-Jul-18 13:19N 44°02' E 036°31'6 8.5
2014-Jul-18 12:33N 43°60' E 036°22'8 8.4
2014-Jul-18 11:33N 43°56' E 036°12'9 8.4
2014-Jul-18 10:27N 43°52' E 036°00'10 9.5
2014-Jul-18 09:23N 43°49' E 035°47'  
2014-Jul-15 01:19N 38°41' E 025°41'7 8.9
2014-Jul-15 00:30N 38°33' E 025°41'8 8.4
2014-Jul-14 23:33N 38°26' E 025°41'19 8.5
2014-Jul-14 21:17N 38°06' E 025°40'7 7.9
2014-Jul-14 20:27N 37°60' E 025°39'8 7.4
2014-Jul-14 19:23N 37°52' E 025°39'6 7.5
2014-Jul-14 18:33N 37°46' E 025°39'8 7.9
2014-Jul-14 17:31N 37°37' E 025°38'7 7.7
2014-Jul-14 16:33N 37°30' E 025°38'7 7.0
2014-Jul-14 15:32N 37°23' E 025°36'9 8.8
2014-Jul-14 14:33N 37°19' E 025°27'9 9.0
2014-Jul-14 13:33N 37°14' E 025°18'9 8.9
2014-Jul-14 12:33N 37°10' E 025°08'9 8.6
2014-Jul-14 11:33N 37°05' E 024°58'8 8.2
2014-Jul-14 10:33N 36°59' E 024°52'1212.0
2014-Jul-14 09:33N 36°47' E 024°47'1312.4
2014-Jul-14 08:32N 36°37' E 024°38'1110.7
2014-Jul-14 07:32N 36°28' E 024°30'1212.0
2014-Jul-14 06:33N 36°22' E 024°43'1111.1
2014-Jul-14 05:33N 36°16' E 024°55'1110.9
2014-Jul-14 04:33N 36°10' E 025°06'1110.7
2014-Jul-14 03:33N 36°04' E 025°17'1110.5
2014-Jul-14 02:33N 35°58' E 025°28'1010.1
2014-Jul-14 01:33N 35°53' E 025°38'10 9.7
2014-Jul-14 00:33N 35°47' E 025°48'10 9.7
2014-Jul-13 23:33N 35°42' E 025°58'10 9.5
2014-Jul-13 22:33N 35°37' E 026°08'296 8.7
2014-Jul-12 12:32N 31°34' E 029°31'8 7.9
2014-Jul-12 11:33N 31°27' E 029°35'8 8.1
2014-Jul-12 10:31N 31°19' E 029°38'9 7.6
2014-Jul-12 09:17N 31°11' E 029°43'7 0.2
2014-Jul-10 21:12N 31°10' E 029°51'0 0.0
2014-Jul-10 20:33N 31°10' E 029°51'0 0.0
2014-Jul-10 18:33N 31°10' E 029°51'0 0.0
2014-Jul-10 16:15N 31°10' E 029°51'  

Dump ship's entire track history